createdAt,value
2023-03-26T00:01:53.093Z,1.47
2023-03-26T00:04:21.940Z,1.23
2023-03-26T00:06:50.409Z,1.77
2023-03-26T00:09:18.569Z,1.83
2023-03-26T00:11:46.824Z,1.20
2023-03-26T00:14:17.819Z,0.97
2023-03-26T00:16:47.605Z,1.67
2023-03-26T00:19:15.694Z,1.67
2023-03-26T00:21:43.354Z,1.92
2023-03-26T00:24:16.373Z,1.83
2023-03-26T00:26:44.861Z,1.80
2023-03-26T00:29:15.589Z,1.60
2023-03-26T00:31:46.412Z,1.25
2023-03-26T00:34:18.642Z,1.50
2023-03-26T00:36:47.096Z,1.42
2023-03-26T00:39:15.309Z,1.30
2023-03-26T00:41:43.364Z,1.10
2023-03-26T00:44:11.651Z,1.58
2023-03-26T00:46:39.653Z,1.08
2023-03-26T00:49:11.099Z,1.02
2023-03-26T00:51:39.458Z,0.90
2023-03-26T00:54:08.438Z,1.55
2023-03-26T00:56:36.164Z,1.12
2023-03-26T00:59:04.231Z,1.05
2023-03-26T01:01:32.629Z,1.40
2023-03-26T01:04:28.380Z,0.97
2023-03-26T01:07:28.947Z,1.00
2023-03-26T01:09:58.828Z,1.08
2023-03-26T01:12:32.044Z,1.05
2023-03-26T01:15:01.394Z,1.10
2023-03-26T01:17:34.040Z,0.90
2023-03-26T01:20:15.080Z,1.17
2023-03-26T01:22:47.055Z,1.35
2023-03-26T01:25:14.636Z,1.37
2023-03-26T01:27:42.712Z,1.45
2023-03-26T01:30:19.718Z,1.40
2023-03-26T01:32:53.522Z,1.05
2023-03-26T01:35:49.679Z,1.10
2023-03-26T01:38:36.175Z,1.10
2023-03-26T01:41:54.495Z,1.42
2023-03-26T01:44:31.386Z,1.30
2023-03-26T01:46:59.658Z,1.73
2023-03-26T01:49:28.366Z,1.30
2023-03-26T01:51:56.867Z,1.50
2023-03-26T01:54:27.709Z,1.60
2023-03-26T01:57:16.003Z,1.50
2023-03-26T01:59:57.571Z,1.25
2023-03-26T02:02:32.818Z,1.70
2023-03-26T02:05:08.463Z,2.10
2023-03-26T02:07:51.136Z,1.42
2023-03-26T02:10:42.560Z,0.87
2023-03-26T02:13:11.968Z,0.90
2023-03-26T02:15:41.129Z,1.40
2023-03-26T02:18:13.614Z,1.37
2023-03-26T02:20:41.761Z,1.30
2023-03-26T02:23:09.953Z,1.23
2023-03-26T02:25:39.920Z,1.12
2023-03-26T02:28:07.896Z,1.27
2023-03-26T02:30:35.680Z,1.40
2023-03-26T02:33:03.664Z,1.33
2023-03-26T02:35:32.847Z,1.60
2023-03-26T02:38:02.011Z,1.30
2023-03-26T02:40:29.691Z,1.40
2023-03-26T02:42:58.814Z,1.55
2023-03-26T02:45:27.204Z,1.70
2023-03-26T02:47:56.132Z,1.23
2023-03-26T02:50:25.563Z,1.58
2023-03-26T02:52:54.224Z,1.25
2023-03-26T02:55:21.861Z,1.62
2023-03-26T02:57:50.665Z,1.95
2023-03-26T03:00:22.053Z,1.90
2023-03-26T03:02:58.083Z,1.62
2023-03-26T03:05:26.690Z,1.85
2023-03-26T03:07:58.127Z,2.00
2023-03-26T03:10:32.740Z,1.98
2023-03-26T03:13:01.789Z,1.73
2023-03-26T03:15:29.393Z,2.28
2023-03-26T03:17:57.065Z,1.90
2023-03-26T03:20:27.504Z,1.90
2023-03-26T03:22:55.410Z,2.10
2023-03-26T03:25:23.462Z,2.20
2023-03-26T03:27:51.280Z,2.00
2023-03-26T03:30:19.384Z,2.25
2023-03-26T03:32:48.024Z,2.22
2023-03-26T03:35:16.948Z,2.28
2023-03-26T03:37:44.779Z,2.40
2023-03-26T03:40:13.189Z,2.05
2023-03-26T03:42:41.049Z,2.05
2023-03-26T03:45:09.672Z,2.20
2023-03-26T03:47:38.589Z,2.25
2023-03-26T03:50:07.409Z,1.87
2023-03-26T03:52:35.878Z,2.15
2023-03-26T03:55:04.185Z,2.25
2023-03-26T03:57:34.713Z,2.50
2023-03-26T04:00:06.354Z,2.30
2023-03-26T04:02:43.347Z,2.10
2023-03-26T04:05:12.045Z,2.30
2023-03-26T04:07:40.423Z,3.62
2023-03-26T04:10:10.331Z,3.67
2023-03-26T04:12:45.736Z,5.47
2023-03-26T04:15:13.844Z,6.20
2023-03-26T04:17:45.417Z,4.00
2023-03-26T04:20:16.394Z,2.67
2023-03-26T04:22:44.841Z,2.20
2023-03-26T04:25:13.447Z,3.15
2023-03-26T04:27:44.203Z,2.07
2023-03-26T04:30:16.043Z,2.80
2023-03-26T04:32:45.518Z,2.50
2023-03-26T04:35:15.040Z,2.10
2023-03-26T04:37:44.379Z,2.40
2023-03-26T04:40:20.413Z,3.47
2023-03-26T04:42:48.542Z,4.05
2023-03-26T04:45:22.849Z,4.20
2023-03-26T04:47:53.536Z,4.05
2023-03-26T04:50:21.307Z,4.85
2023-03-26T04:52:49.516Z,4.50
2023-03-26T04:55:36.785Z,4.10
2023-03-26T04:58:06.070Z,3.25
2023-03-26T05:00:36.101Z,3.33
2023-03-26T05:03:04.280Z,2.90
2023-03-26T05:05:32.141Z,3.00
2023-03-26T05:08:00.401Z,2.78
2023-03-26T05:10:28.273Z,2.95
2023-03-26T05:12:56.474Z,2.25
2023-03-26T05:15:24.535Z,2.95
2023-03-26T05:17:52.787Z,3.43
2023-03-26T05:20:26.464Z,3.00
2023-03-26T05:22:54.414Z,2.92
2023-03-26T05:25:22.973Z,3.28
2023-03-26T05:27:50.593Z,3.08
2023-03-26T05:30:21.401Z,3.77
2023-03-26T05:32:50.062Z,2.87
2023-03-26T05:35:19.328Z,3.40
2023-03-26T05:37:47.546Z,2.70
2023-03-26T05:40:17.294Z,3.22
2023-03-26T05:42:46.114Z,2.90
2023-03-26T05:45:16.765Z,3.35
2023-03-26T05:47:44.561Z,3.87
2023-03-26T05:50:12.522Z,3.75
2023-03-26T05:52:41.016Z,4.43
2023-03-26T05:55:09.461Z,4.40
2023-03-26T05:57:42.790Z,2.90
2023-03-26T06:00:16.712Z,2.78
2023-03-26T06:02:44.413Z,3.60
2023-03-26T06:05:13.226Z,3.40
2023-03-26T06:07:44.525Z,3.07
2023-03-26T06:10:18.089Z,2.60
2023-03-26T06:12:46.692Z,2.50
2023-03-26T06:15:15.541Z,2.30
2023-03-26T06:17:43.148Z,2.92
2023-03-26T06:20:12.956Z,2.20
2023-03-26T06:22:41.193Z,2.72
2023-03-26T06:25:10.091Z,2.85
2023-03-26T06:27:38.053Z,2.62
2023-03-26T06:30:08.624Z,2.60
2023-03-26T06:32:36.908Z,2.37
2023-03-26T06:35:06.402Z,2.50
2023-03-26T06:37:34.770Z,2.42
2023-03-26T06:40:03.869Z,2.60
2023-03-26T06:43:08.699Z,2.10
2023-03-26T06:45:22.086Z,2.20
2023-03-26T06:47:52.743Z,2.60
2023-03-26T06:50:22.124Z,1.90
2023-03-26T06:52:54.063Z,2.12
2023-03-26T06:55:21.948Z,1.58
2023-03-26T06:57:53.202Z,2.20
2023-03-26T07:00:22.662Z,2.10
2023-03-26T07:02:53.244Z,2.08
2023-03-26T07:05:33.026Z,2.05
2023-03-26T07:08:03.390Z,1.87
2023-03-26T07:10:43.246Z,1.67
2023-03-26T07:13:11.093Z,1.95
2023-03-26T07:15:41.565Z,1.45
2023-03-26T07:18:09.784Z,1.48
2023-03-26T07:20:37.832Z,1.50
2023-03-26T07:23:06.166Z,1.20
2023-03-26T07:25:34.608Z,1.70
2023-03-26T07:28:11.304Z,1.37
2023-03-26T07:31:04.435Z,1.50
2023-03-26T07:34:13.246Z,1.40
2023-03-26T07:36:59.784Z,1.00
2023-03-26T07:39:43.888Z,1.58
2023-03-26T07:42:43.380Z,1.70
2023-03-26T07:45:41.811Z,1.60
2023-03-26T07:48:18.859Z,1.58
2023-03-26T07:50:47.562Z,1.87
2023-03-26T07:53:18.207Z,1.80
2023-03-26T07:55:52.234Z,1.73
2023-03-26T07:58:48.993Z,1.40
2023-03-26T08:01:45.436Z,1.27
2023-03-26T08:04:29.918Z,1.30
2023-03-26T08:07:37.533Z,1.50
2023-03-26T08:10:23.865Z,1.15
2023-03-26T08:13:07.382Z,1.17
2023-03-26T08:15:39.329Z,1.30
2023-03-26T08:18:31.619Z,1.40
2023-03-26T08:21:14.082Z,0.88
2023-03-26T08:23:51.972Z,1.40
2023-03-26T08:26:45.534Z,1.10
2023-03-26T08:29:34.578Z,1.20
2023-03-26T08:32:04.578Z,1.00
2023-03-26T08:34:32.232Z,0.98
2023-03-26T08:36:59.813Z,1.00
2023-03-26T08:39:27.966Z,1.20
2023-03-26T08:41:58.638Z,0.85
2023-03-26T08:44:32.306Z,0.77
2023-03-26T08:47:44.412Z,0.70
2023-03-26T08:50:26.631Z,0.88
2023-03-26T08:53:12.738Z,1.42
2023-03-26T08:55:55.300Z,1.37
2023-03-26T08:58:44.067Z,0.87
2023-03-26T09:01:23.903Z,1.00
2023-03-26T09:04:29.668Z,1.08
2023-03-26T09:07:19.001Z,1.17
2023-03-26T09:10:09.163Z,1.00
2023-03-26T09:13:14.250Z,1.07
2023-03-26T09:16:00.493Z,1.10
2023-03-26T09:18:53.672Z,1.17
2023-03-26T09:21:37.965Z,1.00
2023-03-26T09:24:33.296Z,1.20
2023-03-26T09:27:08.247Z,0.50
2023-03-26T09:29:57.122Z,1.10
2023-03-26T09:33:19.240Z,1.05
2023-03-26T09:35:55.118Z,1.00
2023-03-26T09:38:44.914Z,0.88
2023-03-26T09:41:25.754Z,1.20
2023-03-26T09:44:12.770Z,0.88
2023-03-26T09:47:09.187Z,1.58
2023-03-26T09:49:49.610Z,1.08
2023-03-26T09:52:31.924Z,1.10
2023-03-26T09:55:21.158Z,1.20
2023-03-26T09:58:00.635Z,1.33
2023-03-26T10:00:46.835Z,1.12
2023-03-26T10:03:17.782Z,1.20
2023-03-26T10:05:57.593Z,0.88
2023-03-26T10:08:34.811Z,1.10
2023-03-26T10:11:14.398Z,1.10
2023-03-26T10:13:59.620Z,0.90
2023-03-26T10:16:40.214Z,0.80
2023-03-26T10:19:23.635Z,1.12
2023-03-26T10:22:11.998Z,6.73
2023-03-26T10:25:01.464Z,1.00
2023-03-26T10:27:47.634Z,0.98
2023-03-26T10:30:43.306Z,1.10
2023-03-26T10:33:22.440Z,0.70
2023-03-26T10:36:18.837Z,0.60
2023-03-26T10:39:09.224Z,0.70
2023-03-26T10:41:45.957Z,0.60
2023-03-26T10:44:31.795Z,1.00
2023-03-26T10:47:30.701Z,0.98
2023-03-26T10:50:23.065Z,0.83
2023-03-26T10:53:20.756Z,0.60
2023-03-26T10:55:54.892Z,0.88
2023-03-26T10:58:27.634Z,1.20
2023-03-26T11:01:10.637Z,0.90
2023-03-26T11:03:54.936Z,1.07
2023-03-26T11:06:51.707Z,0.80
2023-03-26T11:09:28.620Z,0.88
2023-03-26T11:12:26.708Z,0.98
2023-03-26T11:15:02.115Z,1.10
2023-03-26T11:17:42.887Z,1.13
2023-03-26T11:20:32.690Z,1.12
2023-03-26T11:23:06.590Z,0.98
2023-03-26T11:26:14.619Z,0.65
2023-03-26T11:29:31.782Z,0.80
2023-03-26T11:32:05.490Z,0.70
2023-03-26T11:34:38.591Z,1.08
2023-03-26T11:37:12.571Z,1.23
2023-03-26T11:39:48.821Z,0.80
2023-03-26T11:42:18.737Z,0.98
2023-03-26T11:44:58.639Z,0.90
2023-03-26T11:47:32.550Z,0.90
2023-03-26T11:50:01.934Z,0.50
2023-03-26T11:52:29.991Z,0.85
2023-03-26T11:54:58.600Z,0.95
2023-03-26T11:57:30.345Z,0.80
2023-03-26T12:00:16.690Z,0.70
2023-03-26T12:02:46.241Z,0.95
2023-03-26T12:05:18.829Z,0.95
2023-03-26T12:07:58.170Z,0.90
2023-03-26T12:10:39.789Z,0.67
2023-03-26T12:13:28.577Z,0.90
2023-03-26T12:16:10.036Z,1.15
2023-03-26T12:18:39.870Z,0.80
2023-03-26T12:21:13.885Z,1.17
2023-03-26T12:23:54.037Z,0.90
2023-03-26T12:26:34.061Z,1.00
2023-03-26T12:29:17.170Z,0.65
2023-03-26T12:31:56.013Z,0.70
2023-03-26T12:34:31.132Z,0.85
2023-03-26T12:37:02.085Z,0.70
2023-03-26T12:40:09.140Z,1.20
2023-03-26T12:44:50.580Z,0.80
2023-03-26T12:45:23.673Z,1.10
2023-03-26T12:48:02.366Z,1.40
2023-03-26T12:50:57.191Z,1.03
2023-03-26T12:53:33.363Z,0.90
2023-03-26T12:56:19.927Z,1.02
2023-03-26T12:59:02.418Z,0.93
2023-03-26T13:01:39.812Z,1.00
2023-03-26T13:05:02.266Z,1.30
2023-03-26T13:07:39.995Z,0.77
2023-03-26T13:10:32.387Z,0.90
2023-03-26T13:13:28.686Z,0.95
2023-03-26T13:16:34.132Z,0.95
2023-03-26T13:19:05.372Z,0.97
2023-03-26T13:21:33.113Z,0.75
2023-03-26T13:24:07.076Z,0.95
2023-03-26T13:26:47.665Z,1.25
2023-03-26T13:29:23.612Z,1.23
2023-03-26T13:32:10.275Z,1.10
2023-03-26T13:35:02.532Z,0.93
2023-03-26T13:37:47.572Z,1.17
2023-03-26T13:40:57.793Z,0.95
2023-03-26T13:43:46.996Z,1.25
2023-03-26T13:46:31.394Z,1.07
2023-03-26T13:49:15.731Z,1.30
2023-03-26T13:51:45.366Z,0.73
2023-03-26T13:54:45.881Z,0.80
2023-03-26T13:57:29.955Z,0.90
2023-03-26T14:00:06.674Z,0.80
2023-03-26T14:02:41.771Z,0.90
2023-03-26T14:05:29.834Z,0.82
2023-03-26T14:08:04.865Z,0.77
2023-03-26T14:10:36.749Z,0.90
2023-03-26T14:13:20.730Z,0.93
2023-03-26T14:15:52.908Z,0.50
2023-03-26T14:18:39.683Z,0.85
2023-03-26T14:21:25.958Z,2.40
2023-03-26T14:24:09.772Z,1.20
2023-03-26T14:26:46.407Z,1.00
2023-03-26T14:29:18.897Z,4.85
2023-03-26T14:32:02.444Z,5.40
2023-03-26T14:34:54.574Z,0.95
2023-03-26T14:37:46.463Z,1.00
2023-03-26T14:40:27.208Z,0.90
2023-03-26T14:43:05.458Z,0.80
2023-03-26T14:45:48.262Z,0.80
2023-03-26T14:48:34.416Z,0.70
2023-03-26T14:51:16.622Z,0.80
2023-03-26T14:53:53.547Z,0.70
2023-03-26T14:56:46.918Z,0.90
2023-03-26T14:59:40.785Z,0.82
2023-03-26T15:02:20.772Z,0.70
2023-03-26T15:04:54.399Z,1.15
2023-03-26T15:07:45.928Z,0.87
2023-03-26T15:10:22.601Z,0.80
2023-03-26T15:13:16.056Z,0.90
2023-03-26T15:15:55.563Z,1.08
2023-03-26T15:18:23.340Z,1.08
2023-03-26T15:21:19.200Z,1.17
2023-03-26T15:24:32.366Z,1.00
2023-03-26T15:27:34.560Z,1.00
2023-03-26T15:30:08.545Z,1.25
2023-03-26T15:33:10.664Z,1.30
2023-03-26T15:36:09.128Z,1.97
2023-03-26T15:39:06.667Z,1.00
2023-03-26T15:41:56.042Z,1.00
2023-03-26T15:44:29.854Z,1.10
2023-03-26T15:47:01.541Z,1.35
2023-03-26T15:49:39.805Z,1.03
2023-03-26T15:52:29.675Z,1.30
2023-03-26T15:55:06.025Z,1.00
2023-03-26T15:57:41.176Z,0.90
2023-03-26T16:00:34.379Z,1.00
2023-03-26T16:03:25.753Z,1.17
2023-03-26T16:06:02.392Z,0.77
2023-03-26T16:08:41.752Z,1.15
2023-03-26T16:11:12.730Z,1.20
2023-03-26T16:13:49.953Z,1.20
2023-03-26T16:16:22.543Z,1.40
2023-03-26T16:19:21.887Z,1.17
2023-03-26T16:22:14.156Z,1.00
2023-03-26T16:24:46.766Z,0.93
2023-03-26T16:27:15.235Z,1.02
2023-03-26T16:30:29.047Z,1.10
2023-03-26T16:33:16.752Z,1.10
2023-03-26T16:36:25.972Z,1.08
2023-03-26T16:39:11.881Z,1.10
2023-03-26T16:41:39.654Z,1.10
2023-03-26T16:44:35.030Z,2.50
2023-03-26T16:47:18.284Z,2.08
2023-03-26T16:50:08.468Z,2.45
2023-03-26T16:52:52.026Z,1.80
2023-03-26T16:56:05.213Z,1.87
2023-03-26T16:58:55.946Z,1.33
2023-03-26T17:01:50.500Z,1.20
2023-03-26T17:04:26.253Z,1.10
2023-03-26T17:07:05.897Z,1.87
2023-03-26T17:09:37.871Z,1.45
2023-03-26T17:12:23.863Z,2.10
2023-03-26T17:15:04.881Z,1.45
2023-03-26T17:17:44.408Z,2.40
2023-03-26T17:20:33.514Z,8.63
2023-03-26T17:23:22.715Z,5.47
2023-03-26T17:25:57.753Z,4.10
2023-03-26T17:28:38.649Z,6.15
2023-03-26T17:31:21.221Z,3.78
2023-03-26T17:33:49.953Z,5.60
2023-03-26T17:36:31.482Z,5.95
2023-03-26T17:39:01.882Z,3.83
2023-03-26T17:41:50.849Z,2.03
2023-03-26T17:44:36.814Z,1.90
2023-03-26T17:47:07.135Z,1.67
2023-03-26T17:49:35.475Z,2.05
2023-03-26T17:52:04.207Z,1.87
2023-03-26T17:54:44.454Z,2.45
2023-03-26T17:57:15.858Z,1.95
2023-03-26T17:59:45.549Z,1.60
2023-03-26T18:02:19.311Z,2.12
2023-03-26T18:04:51.679Z,4.40
2023-03-26T18:07:37.719Z,4.82
2023-03-26T18:10:38.959Z,3.50
2023-03-26T18:13:09.843Z,5.45
2023-03-26T18:16:11.743Z,3.85
2023-03-26T18:18:49.865Z,2.77
2023-03-26T18:21:38.918Z,2.67
2023-03-26T18:24:08.924Z,5.62
2023-03-26T18:26:42.861Z,2.90
2023-03-26T18:29:24.708Z,3.42
2023-03-26T18:31:57.743Z,3.10
2023-03-26T18:34:29.202Z,4.30
2023-03-26T18:37:11.572Z,8.20
2023-03-26T18:39:39.761Z,5.40
2023-03-26T18:42:22.631Z,4.10
2023-03-26T18:44:54.255Z,3.83
2023-03-26T18:47:29.122Z,3.58
2023-03-26T18:49:58.570Z,3.70
2023-03-26T18:52:28.677Z,2.80
2023-03-26T18:54:59.144Z,2.80
2023-03-26T18:57:29.050Z,3.00
2023-03-26T19:00:14.625Z,2.62
2023-03-26T19:02:42.578Z,3.03
2023-03-26T19:05:15.307Z,2.15
2023-03-26T19:07:45.816Z,2.03
2023-03-26T19:10:18.644Z,2.30
2023-03-26T19:12:46.494Z,2.30
2023-03-26T19:15:16.444Z,2.20
2023-03-26T19:17:59.797Z,2.60
2023-03-26T19:20:30.037Z,2.60
2023-03-26T19:22:58.081Z,2.77
2023-03-26T19:25:29.096Z,2.10
2023-03-26T19:27:57.333Z,2.12
2023-03-26T19:30:34.109Z,1.80
2023-03-26T19:33:12.371Z,3.42
2023-03-26T19:35:42.775Z,2.20
2023-03-26T19:38:25.671Z,2.17
2023-03-26T19:40:57.784Z,2.95
2023-03-26T19:43:26.986Z,2.58
2023-03-26T19:46:00.470Z,2.65
2023-03-26T19:48:45.528Z,2.63
2023-03-26T19:51:32.233Z,2.67
2023-03-26T19:54:06.235Z,2.30
2023-03-26T19:56:34.442Z,2.12
2023-03-26T19:59:02.612Z,3.12
2023-03-26T20:01:31.901Z,2.23
2023-03-26T20:04:01.778Z,2.45
2023-03-26T20:06:42.416Z,2.22
2023-03-26T20:09:13.150Z,3.30
2023-03-26T20:11:41.891Z,2.70
2023-03-26T20:14:16.454Z,2.43
2023-03-26T20:16:45.671Z,2.80
2023-03-26T20:19:15.062Z,2.72
2023-03-26T20:21:44.451Z,2.80
2023-03-26T20:24:15.742Z,2.40
2023-03-26T20:26:44.767Z,2.50
2023-03-26T20:29:13.433Z,2.30
2023-03-26T20:31:42.839Z,2.20
2023-03-26T20:34:17.395Z,1.85
2023-03-26T20:36:46.941Z,1.77
2023-03-26T20:39:15.097Z,1.60
2023-03-26T20:41:48.296Z,1.30
2023-03-26T20:44:18.322Z,1.62
2023-03-26T20:46:48.295Z,1.30
2023-03-26T20:49:16.441Z,1.65
2023-03-26T20:51:45.721Z,1.83
2023-03-26T20:54:15.924Z,1.67
2023-03-26T20:56:44.016Z,1.75
2023-03-26T20:59:17.911Z,1.48
2023-03-26T21:01:48.912Z,1.80
2023-03-26T21:04:17.695Z,2.10
2023-03-26T21:06:45.597Z,1.80
2023-03-26T21:09:17.690Z,3.17
2023-03-26T21:11:52.321Z,1.77
2023-03-26T21:14:41.278Z,1.77
2023-03-26T21:17:18.244Z,2.07
2023-03-26T21:19:47.188Z,1.48
2023-03-26T21:22:28.281Z,1.62
2023-03-26T21:25:01.806Z,2.10
2023-03-26T21:27:44.231Z,2.45
2023-03-26T21:30:16.590Z,1.70
2023-03-26T21:32:46.252Z,1.55
2023-03-26T21:35:16.187Z,1.60
2023-03-26T21:37:45.730Z,1.50
2023-03-26T21:40:14.843Z,1.45
2023-03-26T21:42:50.174Z,1.43
2023-03-26T21:45:18.969Z,1.20
2023-03-26T21:47:47.538Z,0.88
2023-03-26T21:50:18.882Z,1.00
2023-03-26T21:52:47.232Z,1.20
2023-03-26T21:55:17.022Z,1.23
2023-03-26T21:58:08.929Z,1.10
2023-03-26T22:00:45.820Z,1.70
2023-03-26T22:03:25.859Z,1.80
2023-03-26T22:06:07.209Z,1.73
2023-03-26T22:08:38.682Z,1.57
2023-03-26T22:11:07.414Z,1.40
2023-03-26T22:13:38.848Z,1.73
2023-03-26T22:16:08.743Z,1.25
2023-03-26T22:18:36.578Z,1.73
2023-03-26T22:21:04.600Z,1.50
2023-03-26T22:23:36.172Z,1.37
2023-03-26T22:26:05.102Z,1.62
2023-03-26T22:28:33.198Z,1.85
2023-03-26T22:31:07.315Z,1.40
2023-03-26T22:33:36.132Z,1.50
2023-03-26T22:36:03.946Z,1.60
2023-03-26T22:38:31.538Z,1.20
2023-03-26T22:40:59.508Z,1.60
2023-03-26T22:43:27.043Z,1.87
2023-03-26T22:45:55.123Z,1.40
2023-03-26T22:48:23.876Z,1.37
2023-03-26T22:51:06.009Z,1.62
2023-03-26T22:53:34.740Z,1.20
2023-03-26T22:56:03.081Z,1.40
2023-03-26T22:58:30.527Z,1.20
2023-03-26T23:01:07.981Z,1.52
2023-03-26T23:03:37.204Z,1.40
2023-03-26T23:06:07.548Z,1.52
2023-03-26T23:08:37.399Z,1.40
2023-03-26T23:11:17.070Z,1.30
2023-03-26T23:13:45.362Z,1.35
2023-03-26T23:16:14.200Z,1.55
2023-03-26T23:18:42.070Z,1.60
2023-03-26T23:21:14.991Z,1.90
2023-03-26T23:23:42.940Z,1.20
2023-03-26T23:26:10.900Z,1.80
2023-03-26T23:28:38.866Z,1.35
2023-03-26T23:31:09.180Z,1.62
2023-03-26T23:33:38.553Z,1.48
2023-03-26T23:36:10.522Z,1.40
2023-03-26T23:38:43.994Z,1.65
2023-03-26T23:41:16.172Z,1.70
2023-03-26T23:43:54.348Z,1.45
2023-03-26T23:46:25.190Z,1.75
2023-03-26T23:48:53.278Z,1.90
2023-03-26T23:51:21.477Z,1.92
2023-03-26T23:53:49.662Z,1.65
2023-03-26T23:56:17.563Z,1.40
2023-03-26T23:58:45.350Z,1.60
